sensor_id;sensor_type;location;lat;lon;timestamp;P1;durP1;ratioP1;P2;durP2;ratioP2
21170;SDS011;10743;52.160;20.910;2023-08-06T00:02:40;15.45;;;8.43;;
21170;SDS011;10743;52.160;20.910;2023-08-06T00:05:20;24.60;;;11.10;;
21170;SDS011;10743;52.160;20.910;2023-08-06T00:08:07;24.92;;;11.00;;
21170;SDS011;10743;52.160;20.910;2023-08-06T00:10:48;23.90;;;10.32;;
21170;SDS011;10743;52.160;20.910;2023-08-06T00:13:34;20.38;;;10.15;;
21170;SDS011;10743;52.160;20.910;2023-08-06T00:16:14;18.48;;;10.52;;
21170;SDS011;10743;52.160;20.910;2023-08-06T00:19:08;20.45;;;10.70;;
21170;SDS011;10743;52.160;20.910;2023-08-06T00:21:49;21.75;;;9.07;;
21170;SDS011;10743;52.160;20.910;2023-08-06T00:24:35;21.90;;;9.45;;
21170;SDS011;10743;52.160;20.910;2023-08-06T00:27:15;17.48;;;8.98;;
21170;SDS011;10743;52.160;20.910;2023-08-06T00:30:10;15.48;;;8.38;;
21170;SDS011;10743;52.160;20.910;2023-08-06T00:32:51;23.17;;;8.20;;
21170;SDS011;10743;52.160;20.910;2023-08-06T00:35:37;19.38;;;8.43;;
21170;SDS011;10743;52.160;20.910;2023-08-06T00:38:17;14.93;;;8.32;;
21170;SDS011;10743;52.160;20.910;2023-08-06T00:41:04;12.82;;;7.38;;
21170;SDS011;10743;52.160;20.910;2023-08-06T00:43:51;16.17;;;7.78;;
21170;SDS011;10743;52.160;20.910;2023-08-06T00:46:45;13.73;;;7.03;;
21170;SDS011;10743;52.160;20.910;2023-08-06T00:49:26;13.98;;;7.22;;
21170;SDS011;10743;52.160;20.910;2023-08-06T00:52:12;13.60;;;7.22;;
21170;SDS011;10743;52.160;20.910;2023-08-06T00:54:54;13.48;;;7.15;;
21170;SDS011;10743;52.160;20.910;2023-08-06T00:57:41;9.63;;;6.78;;
21170;SDS011;10743;52.160;20.910;2023-08-06T01:00:22;9.70;;;7.07;;
21170;SDS011;10743;52.160;20.910;2023-08-06T01:03:10;14.25;;;6.68;;
21170;SDS011;10743;52.160;20.910;2023-08-06T01:05:51;14.30;;;6.63;;
21170;SDS011;10743;52.160;20.910;2023-08-06T01:08:49;9.25;;;6.57;;
21170;SDS011;10743;52.160;20.910;2023-08-06T01:11:40;9.60;;;6.82;;
21170;SDS011;10743;52.160;20.910;2023-08-06T01:14:45;9.57;;;6.18;;
21170;SDS011;10743;52.160;20.910;2023-08-06T01:17:31;9.93;;;6.30;;
21170;SDS011;10743;52.160;20.910;2023-08-06T01:20:29;8.80;;;5.75;;
21170;SDS011;10743;52.160;20.910;2023-08-06T01:23:10;10.43;;;6.50;;
21170;SDS011;10743;52.160;20.910;2023-08-06T01:26:00;8.75;;;6.68;;
21170;SDS011;10743;52.160;20.910;2023-08-06T01:32:08;10.02;;;6.85;;
21170;SDS011;10743;52.160;20.910;2023-08-06T01:34:44;13.27;;;6.75;;
21170;SDS011;10743;52.160;20.910;2023-08-06T01:37:39;11.13;;;6.28;;
21170;SDS011;10743;52.160;20.910;2023-08-06T01:40:14;10.30;;;6.68;;
21170;SDS011;10743;52.160;20.910;2023-08-06T01:43:07;10.75;;;7.18;;
21170;SDS011;10743;52.160;20.910;2023-08-06T01:46:01;10.95;;;6.22;;
21170;SDS011;10743;52.160;20.910;2023-08-06T01:48:42;11.45;;;6.60;;
21170;SDS011;10743;52.160;20.910;2023-08-06T01:51:29;12.00;;;6.50;;
21170;SDS011;10743;52.160;20.910;2023-08-06T01:54:09;8.63;;;5.97;;
21170;SDS011;10743;52.160;20.910;2023-08-06T01:56:55;9.52;;;5.97;;
21170;SDS011;10743;52.160;20.910;2023-08-06T01:59:38;11.45;;;6.70;;
21170;SDS011;10743;52.160;20.910;2023-08-06T02:02:31;8.55;;;5.82;;
21170;SDS011;10743;52.160;20.910;2023-08-06T02:05:07;10.55;;;5.68;;
21170;SDS011;10743;52.160;20.910;2023-08-06T02:08:00;10.27;;;6.10;;
21170;SDS011;10743;52.160;20.910;2023-08-06T02:10:34;10.43;;;5.57;;
21170;SDS011;10743;52.160;20.910;2023-08-06T02:13:29;9.43;;;6.10;;
21170;SDS011;10743;52.160;20.910;2023-08-06T02:16:09;10.18;;;6.45;;
21170;SDS011;10743;52.160;20.910;2023-08-06T02:18:56;11.95;;;6.47;;
21170;SDS011;10743;52.160;20.910;2023-08-06T02:21:36;8.43;;;5.82;;
21170;SDS011;10743;52.160;20.910;2023-08-06T02:24:23;10.18;;;5.80;;
21170;SDS011;10743;52.160;20.910;2023-08-06T02:27:03;8.32;;;5.32;;
21170;SDS011;10743;52.160;20.910;2023-08-06T02:29:50;11.38;;;6.15;;
21170;SDS011;10743;52.160;20.910;2023-08-06T02:32:31;12.43;;;5.95;;
21170;SDS011;10743;52.160;20.910;2023-08-06T02:35:18;8.90;;;6.03;;
21170;SDS011;10743;52.160;20.910;2023-08-06T02:37:58;11.65;;;6.18;;
21170;SDS011;10743;52.160;20.910;2023-08-06T02:40:45;8.45;;;5.90;;
21170;SDS011;10743;52.160;20.910;2023-08-06T02:43:33;10.25;;;6.32;;
21170;SDS011;10743;52.160;20.910;2023-08-06T02:46:28;9.38;;;6.10;;
21170;SDS011;10743;52.160;20.910;2023-08-06T02:49:08;8.57;;;5.82;;
21170;SDS011;10743;52.160;20.910;2023-08-06T02:51:55;9.88;;;6.63;;
21170;SDS011;10743;52.160;20.910;2023-08-06T02:54:35;9.50;;;6.38;;
21170;SDS011;10743;52.160;20.910;2023-08-06T02:57:22;9.75;;;5.88;;
21170;SDS011;10743;52.160;20.910;2023-08-06T03:00:02;11.13;;;6.30;;
21170;SDS011;10743;52.160;20.910;2023-08-06T03:02:58;11.65;;;6.53;;
21170;SDS011;10743;52.160;20.910;2023-08-06T03:05:51;10.20;;;6.55;;
21170;SDS011;10743;52.160;20.910;2023-08-06T03:08:47;10.35;;;6.70;;
21170;SDS011;10743;52.160;20.910;2023-08-06T03:11:20;10.52;;;6.50;;
21170;SDS011;10743;52.160;20.910;2023-08-06T03:14:06;12.25;;;6.93;;
21170;SDS011;10743;52.160;20.910;2023-08-06T03:17:00;10.32;;;6.90;;
21170;SDS011;10743;52.160;20.910;2023-08-06T03:19:40;10.50;;;6.72;;
21170;SDS011;10743;52.160;20.910;2023-08-06T03:22:29;9.32;;;6.90;;
21170;SDS011;10743;52.160;20.910;2023-08-06T03:25:09;14.57;;;7.55;;
21170;SDS011;10743;52.160;20.910;2023-08-06T03:28:05;13.07;;;7.05;;
21170;SDS011;10743;52.160;20.910;2023-08-06T03:30:38;12.05;;;7.95;;
21170;SDS011;10743;52.160;20.910;2023-08-06T03:33:34;12.00;;;7.45;;
21170;SDS011;10743;52.160;20.910;2023-08-06T03:36:17;13.45;;;7.93;;
21170;SDS011;10743;52.160;20.910;2023-08-06T03:39:12;15.77;;;7.82;;
21170;SDS011;10743;52.160;20.910;2023-08-06T03:41:52;12.43;;;7.97;;
21170;SDS011;10743;52.160;20.910;2023-08-06T03:44:39;12.50;;;8.13;;
21170;SDS011;10743;52.160;20.910;2023-08-06T03:47:34;16.15;;;9.07;;
21170;SDS011;10743;52.160;20.910;2023-08-06T03:50:14;14.80;;;9.10;;
21170;SDS011;10743;52.160;20.910;2023-08-06T03:53:02;17.38;;;9.65;;
21170;SDS011;10743;52.160;20.910;2023-08-06T03:55:42;16.75;;;9.55;;
21170;SDS011;10743;52.160;20.910;2023-08-06T03:58:29;16.85;;;9.05;;
21170;SDS011;10743;52.160;20.910;2023-08-06T04:01:09;15.00;;;8.98;;
21170;SDS011;10743;52.160;20.910;2023-08-06T04:03:58;14.80;;;9.30;;
21170;SDS011;10743;52.160;20.910;2023-08-06T04:06:38;13.55;;;9.40;;
21170;SDS011;10743;52.160;20.910;2023-08-06T04:09:28;20.30;;;10.75;;
21170;SDS011;10743;52.160;20.910;2023-08-06T04:12:09;13.32;;;9.55;;
21170;SDS011;10743;52.160;20.910;2023-08-06T04:14:57;15.07;;;10.05;;
21170;SDS011;10743;52.160;20.910;2023-08-06T04:17:38;15.07;;;9.90;;
21170;SDS011;10743;52.160;20.910;2023-08-06T04:20:32;19.45;;;11.13;;
21170;SDS011;10743;52.160;20.910;2023-08-06T04:23:12;17.83;;;10.77;;
21170;SDS011;10743;52.160;20.910;2023-08-06T04:26:05;21.55;;;10.27;;
21170;SDS011;10743;52.160;20.910;2023-08-06T04:28:45;15.95;;;10.52;;
21170;SDS011;10743;52.160;20.910;2023-08-06T04:31:32;18.58;;;11.07;;
21170;SDS011;10743;52.160;20.910;2023-08-06T04:34:05;17.13;;;10.38;;
21170;SDS011;10743;52.160;20.910;2023-08-06T04:36:59;17.15;;;10.68;;
21170;SDS011;10743;52.160;20.910;2023-08-06T04:39:40;16.70;;;10.18;;
21170;SDS011;10743;52.160;20.910;2023-08-06T04:42:27;18.15;;;9.73;;
21170;SDS011;10743;52.160;20.910;2023-08-06T04:45:21;15.35;;;10.38;;
21170;SDS011;10743;52.160;20.910;2023-08-06T04:47:57;15.40;;;9.75;;
21170;SDS011;10743;52.160;20.910;2023-08-06T04:50:51;18.05;;;10.00;;
21170;SDS011;10743;52.160;20.910;2023-08-06T04:53:31;14.98;;;10.50;;
21170;SDS011;10743;52.160;20.910;2023-08-06T04:56:18;18.10;;;10.80;;
21170;SDS011;10743;52.160;20.910;2023-08-06T04:58:58;16.73;;;11.05;;
21170;SDS011;10743;52.160;20.910;2023-08-06T05:01:46;18.05;;;10.25;;
21170;SDS011;10743;52.160;20.910;2023-08-06T05:04:26;18.00;;;11.15;;
21170;SDS011;10743;52.160;20.910;2023-08-06T05:07:14;15.13;;;10.35;;
21170;SDS011;10743;52.160;20.910;2023-08-06T05:09:54;16.73;;;10.90;;
21170;SDS011;10743;52.160;20.910;2023-08-06T05:12:41;19.40;;;10.88;;
21170;SDS011;10743;52.160;20.910;2023-08-06T05:15:21;20.73;;;10.90;;
21170;SDS011;10743;52.160;20.910;2023-08-06T05:18:08;16.42;;;10.60;;
21170;SDS011;10743;52.160;20.910;2023-08-06T05:20:49;13.77;;;10.27;;
21170;SDS011;10743;52.160;20.910;2023-08-06T05:23:36;17.05;;;10.32;;
21170;SDS011;10743;52.160;20.910;2023-08-06T05:26:16;19.75;;;10.20;;
21170;SDS011;10743;52.160;20.910;2023-08-06T05:29:03;16.90;;;10.45;;
21170;SDS011;10743;52.160;20.910;2023-08-06T05:31:43;16.35;;;10.05;;
21170;SDS011;10743;52.160;20.910;2023-08-06T05:34:37;14.52;;;10.20;;
21170;SDS011;10743;52.160;20.910;2023-08-06T05:37:17;14.70;;;10.05;;
21170;SDS011;10743;52.160;20.910;2023-08-06T05:40:04;21.27;;;9.80;;
21170;SDS011;10743;52.160;20.910;2023-08-06T05:42:55;13.63;;;9.60;;
21170;SDS011;10743;52.160;20.910;2023-08-06T05:45:49;12.23;;;9.10;;
21170;SDS011;10743;52.160;20.910;2023-08-06T05:48:23;15.75;;;9.02;;
21170;SDS011;10743;52.160;20.910;2023-08-06T05:51:18;13.48;;;9.05;;
21170;SDS011;10743;52.160;20.910;2023-08-06T05:53:58;10.70;;;7.88;;
21170;SDS011;10743;52.160;20.910;2023-08-06T05:56:45;12.43;;;8.98;;
21170;SDS011;10743;52.160;20.910;2023-08-06T05:59:25;15.50;;;8.93;;
21170;SDS011;10743;52.160;20.910;2023-08-06T06:02:12;15.60;;;8.75;;
21170;SDS011;10743;52.160;20.910;2023-08-06T06:04:52;13.55;;;8.90;;
21170;SDS011;10743;52.160;20.910;2023-08-06T06:07:39;13.43;;;8.82;;
21170;SDS011;10743;52.160;20.910;2023-08-06T06:10:19;14.93;;;9.05;;
21170;SDS011;10743;52.160;20.910;2023-08-06T06:13:06;11.52;;;9.07;;
21170;SDS011;10743;52.160;20.910;2023-08-06T06:16:01;14.23;;;9.07;;
21170;SDS011;10743;52.160;20.910;2023-08-06T06:18:55;13.30;;;8.60;;
21170;SDS011;10743;52.160;20.910;2023-08-06T06:21:36;13.52;;;8.68;;
21170;SDS011;10743;52.160;20.910;2023-08-06T06:24:30;12.20;;;9.15;;
21170;SDS011;10743;52.160;20.910;2023-08-06T06:27:10;12.40;;;8.80;;
21170;SDS011;10743;52.160;20.910;2023-08-06T06:29:57;12.55;;;8.57;;
21170;SDS011;10743;52.160;20.910;2023-08-06T06:32:37;12.35;;;8.23;;
21170;SDS011;10743;52.160;20.910;2023-08-06T06:35:24;13.02;;;8.90;;
21170;SDS011;10743;52.160;20.910;2023-08-06T06:38:04;13.40;;;8.60;;
21170;SDS011;10743;52.160;20.910;2023-08-06T06:40:54;11.68;;;8.38;;
21170;SDS011;10743;52.160;20.910;2023-08-06T06:43:43;13.90;;;8.70;;
21170;SDS011;10743;52.160;20.910;2023-08-06T06:46:39;17.65;;;9.48;;
21170;SDS011;10743;52.160;20.910;2023-08-06T06:49:19;14.63;;;9.10;;
21170;SDS011;10743;52.160;20.910;2023-08-06T06:52:06;12.55;;;9.00;;
21170;SDS011;10743;52.160;20.910;2023-08-06T06:54:47;14.32;;;8.57;;
21170;SDS011;10743;52.160;20.910;2023-08-06T06:57:34;14.63;;;9.45;;
21170;SDS011;10743;52.160;20.910;2023-08-06T07:00:14;16.17;;;8.68;;
21170;SDS011;10743;52.160;20.910;2023-08-06T07:03:01;13.30;;;8.55;;
21170;SDS011;10743;52.160;20.910;2023-08-06T07:05:42;15.40;;;8.88;;
21170;SDS011;10743;52.160;20.910;2023-08-06T07:08:30;12.07;;;8.68;;
21170;SDS011;10743;52.160;20.910;2023-08-06T07:11:10;18.23;;;9.10;;
21170;SDS011;10743;52.160;20.910;2023-08-06T07:13:57;11.80;;;8.73;;
21170;SDS011;10743;52.160;20.910;2023-08-06T07:16:38;12.85;;;8.10;;
21170;SDS011;10743;52.160;20.910;2023-08-06T07:19:32;15.80;;;8.82;;
21170;SDS011;10743;52.160;20.910;2023-08-06T07:22:12;15.25;;;8.48;;
21170;SDS011;10743;52.160;20.910;2023-08-06T07:24:59;23.38;;;9.10;;
21170;SDS011;10743;52.160;20.910;2023-08-06T07:27:39;14.98;;;8.90;;
21170;SDS011;10743;52.160;20.910;2023-08-06T07:30:26;10.68;;;8.75;;
21170;SDS011;10743;52.160;20.910;2023-08-06T07:33:06;13.13;;;8.77;;
21170;SDS011;10743;52.160;20.910;2023-08-06T07:35:53;14.02;;;9.30;;
21170;SDS011;10743;52.160;20.910;2023-08-06T07:38:33;15.45;;;9.05;;
21170;SDS011;10743;52.160;20.910;2023-08-06T07:41:27;13.35;;;9.25;;
21170;SDS011;10743;52.160;20.910;2023-08-06T07:44:14;14.80;;;8.95;;
21170;SDS011;10743;52.160;20.910;2023-08-06T07:47:08;14.23;;;9.00;;
21170;SDS011;10743;52.160;20.910;2023-08-06T07:49:48;15.10;;;9.00;;
21170;SDS011;10743;52.160;20.910;2023-08-06T07:52:35;17.27;;;8.52;;
21170;SDS011;10743;52.160;20.910;2023-08-06T07:55:15;15.40;;;8.95;;
21170;SDS011;10743;52.160;20.910;2023-08-06T07:58:09;13.88;;;8.90;;
21170;SDS011;10743;52.160;20.910;2023-08-06T08:00:49;16.73;;;9.32;;
21170;SDS011;10743;52.160;20.910;2023-08-06T08:03:36;13.40;;;8.60;;
21170;SDS011;10743;52.160;20.910;2023-08-06T08:06:16;14.85;;;8.60;;
21170;SDS011;10743;52.160;20.910;2023-08-06T08:09:10;11.98;;;8.70;;
21170;SDS011;10743;52.160;20.910;2023-08-06T08:11:50;12.68;;;8.93;;
21170;SDS011;10743;52.160;20.910;2023-08-06T08:14:40;20.10;;;9.50;;
21170;SDS011;10743;52.160;20.910;2023-08-06T08:17:20;17.10;;;8.73;;
21170;SDS011;10743;52.160;20.910;2023-08-06T08:20:07;14.15;;;8.60;;
21170;SDS011;10743;52.160;20.910;2023-08-06T08:22:48;13.43;;;9.07;;
21170;SDS011;10743;52.160;20.910;2023-08-06T08:25:35;14.18;;;9.35;;
21170;SDS011;10743;52.160;20.910;2023-08-06T08:28:15;12.88;;;8.82;;
21170;SDS011;10743;52.160;20.910;2023-08-06T08:31:02;16.23;;;8.75;;
21170;SDS011;10743;52.160;20.910;2023-08-06T08:33:42;13.98;;;8.75;;
21170;SDS011;10743;52.160;20.910;2023-08-06T08:36:33;13.40;;;8.77;;
21170;SDS011;10743;52.160;20.910;2023-08-06T08:39:13;14.75;;;9.23;;
21170;SDS011;10743;52.160;20.910;2023-08-06T08:42:00;13.68;;;9.30;;
21170;SDS011;10743;52.160;20.910;2023-08-06T08:44:48;13.80;;;9.15;;
21170;SDS011;10743;52.160;20.910;2023-08-06T08:47:28;12.30;;;8.40;;
21170;SDS011;10743;52.160;20.910;2023-08-06T08:50:17;15.80;;;8.98;;
21170;SDS011;10743;52.160;20.910;2023-08-06T08:52:58;13.25;;;9.25;;
21170;SDS011;10743;52.160;20.910;2023-08-06T08:55:53;13.18;;;8.88;;
21170;SDS011;10743;52.160;20.910;2023-08-06T08:58:34;16.80;;;8.60;;
21170;SDS011;10743;52.160;20.910;2023-08-06T09:01:21;13.90;;;9.02;;
21170;SDS011;10743;52.160;20.910;2023-08-06T09:04:15;12.82;;;8.68;;
21170;SDS011;10743;52.160;20.910;2023-08-06T09:06:56;13.60;;;8.60;;
21170;SDS011;10743;52.160;20.910;2023-08-06T09:09:46;14.07;;;8.80;;
21170;SDS011;10743;52.160;20.910;2023-08-06T09:12:29;14.40;;;8.27;;
21170;SDS011;10743;52.160;20.910;2023-08-06T09:15:24;12.05;;;8.52;;
21170;SDS011;10743;52.160;20.910;2023-08-06T09:17:58;13.88;;;8.88;;
21170;SDS011;10743;52.160;20.910;2023-08-06T09:20:52;17.23;;;8.15;;
21170;SDS011;10743;52.160;20.910;2023-08-06T09:23:29;14.15;;;8.70;;
21170;SDS011;10743;52.160;20.910;2023-08-06T09:26:24;12.65;;;8.00;;
21170;SDS011;10743;52.160;20.910;2023-08-06T09:29:12;12.18;;;7.50;;
21170;SDS011;10743;52.160;20.910;2023-08-06T09:32:01;12.43;;;8.10;;
21170;SDS011;10743;52.160;20.910;2023-08-06T09:34:42;12.52;;;7.47;;
21170;SDS011;10743;52.160;20.910;2023-08-06T09:37:35;15.82;;;7.85;;
21170;SDS011;10743;52.160;20.910;2023-08-06T09:43:12;13.23;;;7.35;;
21170;SDS011;10743;52.160;20.910;2023-08-06T09:46:15;12.98;;;8.00;;
21170;SDS011;10743;52.160;20.910;2023-08-06T09:48:55;12.63;;;7.45;;
21170;SDS011;10743;52.160;20.910;2023-08-06T09:51:42;12.13;;;7.32;;
21170;SDS011;10743;52.160;20.910;2023-08-06T09:54:25;10.70;;;7.43;;
21170;SDS011;10743;52.160;20.910;2023-08-06T09:57:13;12.38;;;7.80;;
21170;SDS011;10743;52.160;20.910;2023-08-06T09:59:48;11.82;;;7.10;;
21170;SDS011;10743;52.160;20.910;2023-08-06T10:02:45;11.27;;;7.10;;
21170;SDS011;10743;52.160;20.910;2023-08-06T10:05:29;9.25;;;6.47;;
21170;SDS011;10743;52.160;20.910;2023-08-06T10:08:19;9.95;;;6.80;;
21170;SDS011;10743;52.160;20.910;2023-08-06T10:11:00;10.30;;;7.05;;
21170;SDS011;10743;52.160;20.910;2023-08-06T10:13:51;8.13;;;6.80;;
21170;SDS011;10743;52.160;20.910;2023-08-06T10:16:44;11.82;;;7.25;;
21170;SDS011;10743;52.160;20.910;2023-08-06T10:19:36;9.48;;;7.07;;
21170;SDS011;10743;52.160;20.910;2023-08-06T10:22:17;9.73;;;6.70;;
21170;SDS011;10743;52.160;20.910;2023-08-06T10:25:09;8.50;;;6.72;;
21170;SDS011;10743;52.160;20.910;2023-08-06T10:30:46;11.98;;;6.85;;
21170;SDS011;10743;52.160;20.910;2023-08-06T10:33:40;11.00;;;7.18;;
21170;SDS011;10743;52.160;20.910;2023-08-06T10:36:38;8.65;;;6.35;;
21170;SDS011;10743;52.160;20.910;2023-08-06T10:39:18;11.93;;;7.18;;
21170;SDS011;10743;52.160;20.910;2023-08-06T10:42:22;14.95;;;6.88;;
21170;SDS011;10743;52.160;20.910;2023-08-06T10:48:06;9.07;;;6.30;;
21170;SDS011;10743;52.160;20.910;2023-08-06T10:50:40;12.70;;;6.60;;
21170;SDS011;10743;52.160;20.910;2023-08-06T10:53:35;8.40;;;6.07;;
21170;SDS011;10743;52.160;20.910;2023-08-06T10:56:20;13.45;;;6.90;;
21170;SDS011;10743;52.160;20.910;2023-08-06T10:59:09;10.68;;;6.15;;
21170;SDS011;10743;52.160;20.910;2023-08-06T11:01:49;12.48;;;6.70;;
21170;SDS011;10743;52.160;20.910;2023-08-06T11:04:36;13.45;;;6.55;;
21170;SDS011;10743;52.160;20.910;2023-08-06T11:07:11;16.00;;;6.57;;
21170;SDS011;10743;52.160;20.910;2023-08-06T11:10:08;11.80;;;6.72;;
21170;SDS011;10743;52.160;20.910;2023-08-06T11:12:51;10.90;;;6.88;;
21170;SDS011;10743;52.160;20.910;2023-08-06T11:15:38;11.07;;;5.82;;
21170;SDS011;10743;52.160;20.910;2023-08-06T11:18:11;8.95;;;6.18;;
21170;SDS011;10743;52.160;20.910;2023-08-06T11:21:05;8.38;;;5.45;;
21170;SDS011;10743;52.160;20.910;2023-08-06T11:23:45;8.48;;;5.80;;
21170;SDS011;10743;52.160;20.910;2023-08-06T11:26:32;12.32;;;6.28;;
21170;SDS011;10743;52.160;20.910;2023-08-06T11:29:05;8.35;;;5.68;;
21170;SDS011;10743;52.160;20.910;2023-08-06T11:32:05;11.05;;;5.88;;
21170;SDS011;10743;52.160;20.910;2023-08-06T11:34:39;7.78;;;5.68;;
21170;SDS011;10743;52.160;20.910;2023-08-06T11:37:33;9.63;;;6.07;;
21170;SDS011;10743;52.160;20.910;2023-08-06T11:40:09;10.55;;;5.82;;
21170;SDS011;10743;52.160;20.910;2023-08-06T11:43:05;7.38;;;5.43;;
21170;SDS011;10743;52.160;20.910;2023-08-06T11:45:59;7.78;;;5.78;;
21170;SDS011;10743;52.160;20.910;2023-08-06T11:48:52;6.60;;;5.40;;
21170;SDS011;10743;52.160;20.910;2023-08-06T11:51:44;10.45;;;6.03;;
21170;SDS011;10743;52.160;20.910;2023-08-06T11:54:31;8.70;;;5.30;;
21170;SDS011;10743;52.160;20.910;2023-08-06T11:57:18;8.25;;;5.78;;
21170;SDS011;10743;52.160;20.910;2023-08-06T12:00:06;14.52;;;5.90;;
21170;SDS011;10743;52.160;20.910;2023-08-06T12:03:01;8.00;;;5.30;;
21170;SDS011;10743;52.160;20.910;2023-08-06T12:05:44;9.32;;;5.88;;
21170;SDS011;10743;52.160;20.910;2023-08-06T12:08:31;10.60;;;5.50;;
21170;SDS011;10743;52.160;20.910;2023-08-06T12:11:12;7.93;;;5.93;;
21170;SDS011;10743;52.160;20.910;2023-08-06T12:13:58;7.45;;;5.60;;
21170;SDS011;10743;52.160;20.910;2023-08-06T12:16:40;7.53;;;5.45;;
21170;SDS011;10743;52.160;20.910;2023-08-06T12:19:26;8.50;;;5.70;;
21170;SDS011;10743;52.160;20.910;2023-08-06T12:22:07;7.78;;;5.20;;
21170;SDS011;10743;52.160;20.910;2023-08-06T12:24:53;8.02;;;5.18;;
21170;SDS011;10743;52.160;20.910;2023-08-06T12:27:37;8.38;;;5.25;;
21170;SDS011;10743;52.160;20.910;2023-08-06T12:30:26;7.72;;;4.85;;
21170;SDS011;10743;52.160;20.910;2023-08-06T12:33:07;7.32;;;5.53;;
21170;SDS011;10743;52.160;20.910;2023-08-06T12:36:00;8.27;;;4.45;;
21170;SDS011;10743;52.160;20.910;2023-08-06T12:38:54;7.78;;;4.68;;
21170;SDS011;10743;52.160;20.910;2023-08-06T12:41:28;9.98;;;4.95;;
21170;SDS011;10743;52.160;20.910;2023-08-06T12:44:21;8.77;;;4.85;;
21170;SDS011;10743;52.160;20.910;2023-08-06T12:47:16;6.55;;;4.68;;
21170;SDS011;10743;52.160;20.910;2023-08-06T12:49:57;7.05;;;5.35;;
21170;SDS011;10743;52.160;20.910;2023-08-06T12:52:50;8.00;;;5.15;;
21170;SDS011;10743;52.160;20.910;2023-08-06T12:55:24;11.10;;;5.53;;
21170;SDS011;10743;52.160;20.910;2023-08-06T12:58:17;7.95;;;4.97;;
21170;SDS011;10743;52.160;20.910;2023-08-06T13:00:51;10.25;;;5.70;;
21170;SDS011;10743;52.160;20.910;2023-08-06T13:03:45;9.63;;;5.53;;
21170;SDS011;10743;52.160;20.910;2023-08-06T13:06:58;10.55;;;5.22;;
21170;SDS011;10743;52.160;20.910;2023-08-06T13:09:39;11.63;;;5.38;;
21170;SDS011;10743;52.160;20.910;2023-08-06T13:12:26;6.18;;;5.13;;
21170;SDS011;10743;52.160;20.910;2023-08-06T13:15:06;11.70;;;5.72;;
21170;SDS011;10743;52.160;20.910;2023-08-06T13:17:55;7.15;;;5.20;;
21170;SDS011;10743;52.160;20.910;2023-08-06T13:20:37;6.93;;;5.18;;
21170;SDS011;10743;52.160;20.910;2023-08-06T13:23:27;9.88;;;4.85;;
21170;SDS011;10743;52.160;20.910;2023-08-06T13:26:07;5.30;;;4.80;;
21170;SDS011;10743;52.160;20.910;2023-08-06T13:29:02;4.80;;;4.25;;
21170;SDS011;10743;52.160;20.910;2023-08-06T13:31:42;6.97;;;4.80;;
21170;SDS011;10743;52.160;20.910;2023-08-06T13:34:29;5.18;;;4.50;;
21170;SDS011;10743;52.160;20.910;2023-08-06T13:37:09;5.47;;;4.40;;
21170;SDS011;10743;52.160;20.910;2023-08-06T13:39:57;7.95;;;4.90;;
21170;SDS011;10743;52.160;20.910;2023-08-06T13:42:37;7.22;;;4.75;;
21170;SDS011;10743;52.160;20.910;2023-08-06T13:45:31;10.00;;;4.53;;
21170;SDS011;10743;52.160;20.910;2023-08-06T13:48:25;8.85;;;4.78;;
21170;SDS011;10743;52.160;20.910;2023-08-06T13:51:05;7.80;;;4.90;;
21170;SDS011;10743;52.160;20.910;2023-08-06T13:53:52;6.45;;;5.13;;
21170;SDS011;10743;52.160;20.910;2023-08-06T13:56:34;8.82;;;5.30;;
21170;SDS011;10743;52.160;20.910;2023-08-06T13:59:21;14.35;;;5.57;;
21170;SDS011;10743;52.160;20.910;2023-08-06T14:02:04;8.13;;;5.28;;
21170;SDS011;10743;52.160;20.910;2023-08-06T14:04:54;10.55;;;5.22;;
21170;SDS011;10743;52.160;20.910;2023-08-06T14:07:35;7.88;;;5.30;;
21170;SDS011;10743;52.160;20.910;2023-08-06T14:10:22;8.48;;;5.10;;
21170;SDS011;10743;52.160;20.910;2023-08-06T14:13:02;7.45;;;5.18;;
21170;SDS011;10743;52.160;20.910;2023-08-06T14:15:50;7.55;;;4.82;;
21170;SDS011;10743;52.160;20.910;2023-08-06T14:18:30;6.25;;;4.78;;
21170;SDS011;10743;52.160;20.910;2023-08-06T14:21:25;6.90;;;4.40;;
21170;SDS011;10743;52.160;20.910;2023-08-06T14:23:58;10.02;;;5.38;;
21170;SDS011;10743;52.160;20.910;2023-08-06T14:26:52;5.13;;;4.22;;
21170;SDS011;10743;52.160;20.910;2023-08-06T14:29:32;8.10;;;4.68;;
21170;SDS011;10743;52.160;20.910;2023-08-06T14:32:19;5.28;;;4.22;;
21170;SDS011;10743;52.160;20.910;2023-08-06T14:34:59;5.72;;;4.22;;
21170;SDS011;10743;52.160;20.910;2023-08-06T14:37:46;6.68;;;4.72;;
21170;SDS011;10743;52.160;20.910;2023-08-06T14:40:26;8.82;;;4.93;;
21170;SDS011;10743;52.160;20.910;2023-08-06T14:43:17;6.80;;;4.22;;
21170;SDS011;10743;52.160;20.910;2023-08-06T14:46:04;6.15;;;3.17;;
21170;SDS011;10743;52.160;20.910;2023-08-06T14:48:44;9.05;;;3.38;;
21170;SDS011;10743;52.160;20.910;2023-08-06T14:51:31;4.85;;;2.72;;
21170;SDS011;10743;52.160;20.910;2023-08-06T14:54:12;3.97;;;2.95;;
21170;SDS011;10743;52.160;20.910;2023-08-06T14:56:59;3.17;;;2.33;;
21170;SDS011;10743;52.160;20.910;2023-08-06T14:59:32;5.82;;;2.40;;
21170;SDS011;10743;52.160;20.910;2023-08-06T15:02:26;4.75;;;2.42;;
21170;SDS011;10743;52.160;20.910;2023-08-06T15:05:07;3.75;;;2.17;;
21170;SDS011;10743;52.160;20.910;2023-08-06T15:08:01;2.05;;;1.80;;
21170;SDS011;10743;52.160;20.910;2023-08-06T15:10:34;2.03;;;1.80;;
21170;SDS011;10743;52.160;20.910;2023-08-06T15:13:28;2.45;;;1.90;;
21170;SDS011;10743;52.160;20.910;2023-08-06T15:16:03;2.92;;;1.60;;
21170;SDS011;10743;52.160;20.910;2023-08-06T15:18:57;1.73;;;1.52;;
21170;SDS011;10743;52.160;20.910;2023-08-06T15:21:37;3.28;;;1.90;;
21170;SDS011;10743;52.160;20.910;2023-08-06T15:24:24;3.40;;;1.55;;
21170;SDS011;10743;52.160;20.910;2023-08-06T15:27:04;2.42;;;1.60;;
21170;SDS011;10743;52.160;20.910;2023-08-06T15:29:52;4.40;;;1.67;;
21170;SDS011;10743;52.160;20.910;2023-08-06T15:32:32;2.10;;;1.42;;
21170;SDS011;10743;52.160;20.910;2023-08-06T15:35:24;1.88;;;1.23;;
21170;SDS011;10743;52.160;20.910;2023-08-06T15:38:04;1.48;;;1.05;;
21170;SDS011;10743;52.160;20.910;2023-08-06T15:40:51;3.22;;;1.10;;
21170;SDS011;10743;52.160;20.910;2023-08-06T15:43:31;1.67;;;1.10;;
21170;SDS011;10743;52.160;20.910;2023-08-06T15:46:18;5.25;;;2.95;;
21170;SDS011;10743;52.160;20.910;2023-08-06T15:48:58;2.92;;;1.17;;
21170;SDS011;10743;52.160;20.910;2023-08-06T15:51:45;2.05;;;1.00;;
21170;SDS011;10743;52.160;20.910;2023-08-06T15:54:25;1.17;;;1.00;;
21170;SDS011;10743;52.160;20.910;2023-08-06T15:57:21;0.90;;;0.90;;
21170;SDS011;10743;52.160;20.910;2023-08-06T16:00:01;6.13;;;1.08;;
21170;SDS011;10743;52.160;20.910;2023-08-06T16:02:51;4.28;;;1.15;;
21170;SDS011;10743;52.160;20.910;2023-08-06T16:05:25;1.85;;;1.08;;
21170;SDS011;10743;52.160;20.910;2023-08-06T16:08:19;2.15;;;0.90;;
21170;SDS011;10743;52.160;20.910;2023-08-06T16:10:52;1.80;;;1.00;;
21170;SDS011;10743;52.160;20.910;2023-08-06T16:13:46;1.13;;;1.00;;
21170;SDS011;10743;52.160;20.910;2023-08-06T16:16:26;2.25;;;1.20;;
21170;SDS011;10743;52.160;20.910;2023-08-06T16:19:13;1.02;;;0.93;;
21170;SDS011;10743;52.160;20.910;2023-08-06T16:21:53;2.88;;;1.00;;
21170;SDS011;10743;52.160;20.910;2023-08-06T16:24:40;1.83;;;0.80;;
21170;SDS011;10743;52.160;20.910;2023-08-06T16:27:22;0.98;;;0.90;;